createdAt,value
2022-10-06T00:00:05.683Z,15.80
2022-10-06T00:02:35.561Z,15.80
2022-10-06T00:05:03.470Z,15.90
2022-10-06T00:07:31.301Z,15.80
2022-10-06T00:09:59.327Z,15.50
2022-10-06T00:12:27.246Z,15.40
2022-10-06T00:14:55.121Z,15.50
2022-10-06T00:17:24.340Z,15.40
2022-10-06T00:19:52.197Z,15.30
2022-10-06T00:22:20.016Z,15.40
2022-10-06T00:24:47.858Z,15.40
2022-10-06T00:27:16.398Z,15.50
2022-10-06T00:29:44.193Z,15.50
2022-10-06T00:32:12.126Z,15.60
2022-10-06T00:34:41.345Z,15.60
2022-10-06T00:37:09.159Z,15.50
2022-10-06T00:39:37.133Z,15.40
2022-10-06T00:42:05.095Z,15.30
2022-10-06T00:44:32.947Z,15.30
2022-10-06T00:47:00.827Z,15.20
2022-10-06T00:49:35.602Z,15.20
2022-10-06T00:52:10.063Z,15.20
2022-10-06T00:54:38.147Z,15.10
2022-10-06T00:57:07.008Z,15.10
2022-10-06T00:59:36.045Z,15.10
2022-10-06T01:02:10.443Z,15.20
2022-10-06T01:04:42.122Z,15.30
2022-10-06T01:07:11.807Z,15.40
2022-10-06T01:09:40.256Z,15.40
2022-10-06T01:12:09.824Z,15.30
2022-10-06T01:14:39.827Z,15.30
2022-10-06T01:17:14.763Z,15.40
2022-10-06T01:19:49.686Z,15.40
2022-10-06T01:22:27.847Z,15.30
2022-10-06T01:24:55.819Z,15.20
2022-10-06T01:27:25.978Z,15.20
2022-10-06T01:29:55.297Z,15.10
2022-10-06T01:32:24.189Z,15.10
2022-10-06T01:34:52.107Z,15.10
2022-10-06T01:37:19.967Z,15.10
2022-10-06T01:39:49.500Z,15.00
2022-10-06T01:42:17.510Z,14.90
2022-10-06T01:44:45.383Z,14.90
2022-10-06T01:47:13.251Z,14.80
2022-10-06T01:49:41.279Z,14.80
2022-10-06T01:52:10.195Z,14.70
2022-10-06T01:54:38.036Z,14.80
2022-10-06T01:57:08.619Z,14.80
2022-10-06T01:59:36.476Z,14.70
2022-10-06T02:02:05.082Z,14.60
2022-10-06T02:04:32.976Z,14.60
2022-10-06T02:07:01.186Z,14.50
2022-10-06T02:09:29.018Z,14.50
2022-10-06T02:11:56.856Z,14.50
2022-10-06T02:14:26.302Z,14.50
2022-10-06T02:16:54.135Z,14.40
2022-10-06T02:19:21.933Z,14.40
2022-10-06T02:21:50.111Z,14.40
2022-10-06T02:24:17.981Z,14.40
2022-10-06T02:26:45.853Z,14.40
2022-10-06T02:29:13.874Z,14.50
2022-10-06T02:31:43.188Z,14.60
2022-10-06T02:34:11.091Z,14.60
2022-10-06T02:36:39.001Z,14.60
2022-10-06T02:39:06.844Z,14.80
2022-10-06T02:41:34.715Z,14.70
2022-10-06T02:44:02.574Z,14.50
2022-10-06T02:46:31.398Z,14.40
2022-10-06T02:49:00.686Z,14.30
2022-10-06T02:51:29.705Z,14.30
2022-10-06T02:53:57.493Z,14.20
2022-10-06T02:56:26.918Z,14.20
2022-10-06T02:58:55.515Z,14.10
2022-10-06T03:01:25.752Z,14.10
2022-10-06T03:03:54.348Z,14.00
2022-10-06T03:06:25.150Z,13.90
2022-10-06T03:08:54.679Z,13.90
2022-10-06T03:11:24.593Z,13.80
2022-10-06T03:13:53.355Z,13.80
2022-10-06T03:16:23.709Z,13.80
2022-10-06T03:18:53.607Z,13.80
2022-10-06T03:21:24.323Z,13.80
2022-10-06T03:23:54.498Z,13.80
2022-10-06T03:26:26.216Z,13.80
2022-10-06T03:28:54.138Z,13.90
2022-10-06T03:31:22.085Z,13.90
2022-10-06T03:33:50.640Z,13.80
2022-10-06T03:36:20.009Z,13.80
2022-10-06T03:38:49.549Z,13.80
2022-10-06T03:41:19.103Z,13.70
2022-10-06T03:43:49.621Z,13.70
2022-10-06T03:46:20.636Z,13.70
2022-10-06T03:48:50.698Z,13.80
2022-10-06T03:51:21.465Z,13.80
2022-10-06T03:53:52.354Z,13.70
2022-10-06T03:56:21.598Z,13.70
2022-10-06T03:58:51.983Z,13.70
2022-10-06T04:01:25.885Z,13.70
2022-10-06T04:03:55.089Z,13.60
2022-10-06T04:06:23.105Z,13.50
2022-10-06T04:08:53.596Z,13.50
2022-10-06T04:11:23.802Z,13.40
2022-10-06T04:13:54.981Z,13.40
2022-10-06T04:16:25.070Z,13.40
2022-10-06T04:18:54.514Z,13.40
2022-10-06T04:21:23.005Z,13.30
2022-10-06T04:23:53.605Z,13.30
2022-10-06T04:26:23.121Z,13.30
2022-10-06T04:28:51.004Z,13.30
2022-10-06T04:31:20.893Z,13.20
2022-10-06T04:33:51.786Z,13.20
2022-10-06T04:36:22.713Z,13.20
2022-10-06T04:38:56.180Z,13.20
2022-10-06T04:41:25.793Z,13.10
2022-10-06T04:43:54.148Z,13.10
2022-10-06T04:46:42.140Z,13.00
2022-10-06T04:49:14.945Z,13.10
2022-10-06T04:51:47.067Z,13.10
2022-10-06T04:54:16.304Z,13.10
2022-10-06T04:56:44.165Z,13.00
2022-10-06T04:59:11.990Z,13.00
2022-10-06T05:01:39.893Z,13.00
2022-10-06T05:04:07.982Z,13.00
2022-10-06T05:06:37.372Z,13.10
2022-10-06T05:09:06.853Z,13.10
2022-10-06T05:11:36.429Z,13.10
2022-10-06T05:14:04.563Z,13.10
2022-10-06T05:16:33.033Z,13.10
2022-10-06T05:19:01.404Z,13.10
2022-10-06T05:21:31.005Z,13.00
2022-10-06T05:23:59.140Z,13.00
2022-10-06T05:26:29.486Z,13.00
2022-10-06T05:28:59.239Z,13.00
2022-10-06T05:31:29.120Z,12.90
2022-10-06T05:33:58.057Z,13.00
2022-10-06T05:36:28.786Z,13.00
2022-10-06T05:38:57.069Z,13.00
2022-10-06T05:41:31.523Z,13.00
2022-10-06T05:44:06.116Z,13.00
2022-10-06T05:46:40.778Z,13.10
2022-10-06T05:49:12.832Z,13.10
2022-10-06T05:51:41.008Z,13.20
2022-10-06T05:54:09.272Z,13.20
2022-10-06T05:56:38.433Z,13.20
2022-10-06T05:59:09.475Z,13.10
2022-10-06T06:01:39.851Z,13.20
2022-10-06T06:04:11.113Z,13.20
2022-10-06T06:06:40.539Z,13.30
2022-10-06T06:09:11.001Z,13.20
2022-10-06T06:11:40.966Z,13.20
2022-10-06T06:14:12.251Z,13.20
2022-10-06T06:16:40.208Z,13.30
2022-10-06T06:19:09.671Z,13.30
2022-10-06T06:21:37.982Z,13.40
2022-10-06T06:24:06.759Z,13.40
2022-10-06T06:26:37.157Z,13.40
2022-10-06T06:29:06.432Z,13.50
2022-10-06T06:31:37.806Z,13.60
2022-10-06T06:34:07.535Z,13.60
2022-10-06T06:36:37.478Z,13.60
2022-10-06T06:39:08.246Z,13.50
2022-10-06T06:41:38.157Z,13.50
2022-10-06T06:44:08.167Z,13.40
2022-10-06T06:46:37.560Z,13.40
2022-10-06T06:49:08.121Z,13.50
2022-10-06T06:51:37.532Z,13.50
2022-10-06T06:54:06.577Z,13.60
2022-10-06T06:56:35.762Z,13.60
2022-10-06T06:59:05.622Z,13.70
2022-10-06T07:01:33.645Z,13.80
2022-10-06T07:04:02.918Z,13.90
2022-10-06T07:06:32.291Z,14.00
2022-10-06T07:09:01.007Z,14.10
2022-10-06T07:11:31.333Z,14.10
2022-10-06T07:14:01.323Z,14.20
2022-10-06T07:16:48.474Z,14.30
2022-10-06T07:19:37.042Z,14.20
2022-10-06T07:22:31.554Z,14.20
2022-10-06T07:25:11.542Z,14.10
2022-10-06T07:27:42.308Z,14.10
2022-10-06T07:30:11.847Z,14.10
2022-10-06T07:32:40.882Z,14.20
2022-10-06T07:35:10.777Z,14.30
2022-10-06T07:37:38.722Z,14.30
2022-10-06T07:40:08.123Z,14.50
2022-10-06T07:42:48.226Z,14.40
2022-10-06T07:45:40.875Z,14.50
2022-10-06T07:48:11.795Z,14.60
2022-10-06T07:50:41.857Z,14.60
2022-10-06T07:53:09.750Z,14.70
2022-10-06T07:55:39.688Z,14.90
2022-10-06T07:58:11.669Z,15.00
2022-10-06T08:00:39.501Z,15.10
2022-10-06T08:03:07.507Z,15.20
2022-10-06T08:05:35.409Z,15.40
2022-10-06T08:08:04.636Z,15.60
2022-10-06T08:10:32.466Z,15.70
2022-10-06T08:13:01.178Z,15.90
2022-10-06T08:15:29.036Z,16.10
2022-10-06T08:17:57.535Z,16.10
2022-10-06T08:20:27.185Z,16.30
2022-10-06T08:22:55.473Z,16.30
2022-10-06T08:25:24.678Z,16.20
2022-10-06T08:27:53.609Z,16.30
2022-10-06T08:30:26.939Z,16.60
2022-10-06T08:32:54.827Z,16.70
2022-10-06T08:35:22.662Z,17.00
2022-10-06T08:37:50.692Z,17.20
2022-10-06T08:40:18.648Z,17.40
2022-10-06T08:42:51.719Z,17.60
2022-10-06T08:45:24.954Z,17.60
2022-10-06T08:48:00.656Z,17.70
2022-10-06T08:50:32.854Z,17.70
2022-10-06T08:53:12.880Z,17.70
2022-10-06T08:55:49.046Z,17.80
2022-10-06T08:58:30.191Z,17.80
2022-10-06T09:01:02.959Z,17.80
2022-10-06T09:03:31.321Z,17.90
2022-10-06T09:06:08.414Z,18.10
2022-10-06T09:08:45.941Z,18.30
2022-10-06T09:11:39.599Z,18.50
2022-10-06T09:14:17.812Z,18.50
2022-10-06T09:16:51.253Z,18.50
2022-10-06T09:19:38.625Z,18.60
2022-10-06T09:22:14.472Z,18.80
2022-10-06T09:24:47.127Z,18.90
2022-10-06T09:27:19.352Z,19.00
2022-10-06T09:29:49.883Z,19.10
2022-10-06T09:32:27.543Z,19.20
2022-10-06T09:34:59.576Z,19.00
2022-10-06T09:37:28.352Z,18.90
2022-10-06T09:39:56.602Z,18.90
2022-10-06T09:42:29.193Z,18.80
2022-10-06T09:45:03.845Z,18.70
2022-10-06T09:47:39.268Z,18.60
2022-10-06T09:50:21.824Z,18.60
2022-10-06T09:53:16.115Z,18.40
2022-10-06T09:55:54.601Z,18.40
2022-10-06T09:58:29.526Z,18.30
2022-10-06T10:01:01.102Z,18.50
2022-10-06T10:03:51.460Z,18.60
2022-10-06T10:06:31.755Z,18.60
2022-10-06T10:09:30.120Z,18.50
2022-10-06T10:12:20.786Z,18.30
2022-10-06T10:14:48.616Z,18.40
2022-10-06T10:17:21.286Z,18.50
2022-10-06T10:19:54.275Z,18.50
2022-10-06T10:22:25.130Z,18.60
2022-10-06T10:25:01.682Z,18.50
2022-10-06T10:27:39.104Z,18.60
2022-10-06T10:30:10.429Z,18.80
2022-10-06T10:32:49.102Z,18.80
2022-10-06T10:35:23.217Z,19.00
2022-10-06T10:37:56.824Z,19.20
2022-10-06T10:40:35.979Z,19.40
2022-10-06T10:43:22.127Z,19.50
2022-10-06T10:45:56.169Z,19.70
2022-10-06T10:48:30.796Z,19.90
2022-10-06T10:51:06.751Z,20.10
2022-10-06T10:53:44.362Z,20.20
2022-10-06T10:56:16.063Z,20.30
2022-10-06T10:58:45.609Z,20.40
2022-10-06T11:01:26.721Z,20.60
2022-10-06T11:03:59.591Z,20.70
2022-10-06T11:07:02.039Z,20.80
2022-10-06T11:09:40.320Z,20.80
2022-10-06T11:12:18.450Z,20.90
2022-10-06T11:14:54.537Z,20.80
2022-10-06T11:17:40.181Z,21.10
2022-10-06T11:20:34.097Z,21.70
2022-10-06T11:23:18.803Z,23.90
2022-10-06T11:25:53.084Z,26.40
2022-10-06T11:28:25.794Z,28.40
2022-10-06T11:31:01.923Z,30.10
2022-10-06T11:33:37.050Z,31.30
2022-10-06T11:36:13.322Z,33.00
2022-10-06T11:38:46.023Z,33.90
2022-10-06T11:41:21.181Z,34.30
2022-10-06T11:44:00.134Z,36.10
2022-10-06T11:46:40.075Z,37.90
2022-10-06T11:49:55.898Z,36.80
2022-10-06T11:52:53.657Z,37.30
2022-10-06T11:55:23.850Z,37.80
2022-10-06T11:58:43.051Z,37.40
2022-10-06T12:01:02.347Z,38.10
2022-10-06T12:04:03.610Z,39.80
2022-10-06T12:07:10.832Z,41.20
2022-10-06T12:09:52.715Z,41.60
2022-10-06T12:13:05.290Z,42.00
2022-10-06T12:19:18.616Z,43.80
2022-10-06T12:22:01.051Z,42.90
2022-10-06T12:24:38.774Z,42.10
2022-10-06T12:27:29.228Z,42.00
2022-10-06T12:30:04.025Z,41.40
2022-10-06T12:32:47.621Z,40.90
2022-10-06T12:35:25.823Z,41.40
2022-10-06T12:37:55.054Z,41.50
2022-10-06T12:40:46.814Z,41.80
2022-10-06T12:43:56.952Z,42.50
2022-10-06T12:46:46.249Z,42.50
2022-10-06T12:49:43.791Z,42.80
2022-10-06T12:52:21.398Z,42.70
2022-10-06T12:55:01.364Z,42.10
2022-10-06T12:57:30.728Z,41.40
2022-10-06T12:59:58.813Z,42.00
2022-10-06T13:02:29.247Z,42.50
2022-10-06T13:05:00.899Z,42.30
2022-10-06T13:07:30.892Z,42.00
2022-10-06T13:10:18.844Z,42.30
2022-10-06T13:12:47.783Z,43.00
2022-10-06T13:15:19.720Z,42.70
2022-10-06T13:17:54.519Z,42.30
2022-10-06T13:20:27.891Z,42.80
2022-10-06T13:23:00.980Z,43.10
2022-10-06T13:25:43.600Z,42.70
2022-10-06T13:28:29.752Z,42.30
2022-10-06T13:30:59.286Z,41.30
2022-10-06T13:33:33.223Z,41.20
2022-10-06T13:36:02.603Z,41.70
2022-10-06T13:38:34.804Z,42.60
2022-10-06T13:41:08.398Z,43.10
2022-10-06T13:43:41.134Z,43.50
2022-10-06T13:46:12.173Z,43.80
2022-10-06T13:48:47.681Z,43.40
2022-10-06T13:51:19.078Z,42.50
2022-10-06T13:53:47.824Z,41.20
2022-10-06T13:56:34.781Z,41.20
2022-10-06T13:59:31.227Z,41.50
2022-10-06T14:02:00.596Z,41.30
2022-10-06T14:04:34.537Z,41.10
2022-10-06T14:07:05.258Z,41.00
2022-10-06T14:09:34.794Z,41.10
2022-10-06T14:12:06.149Z,41.30
2022-10-06T14:14:34.576Z,41.60
2022-10-06T14:17:02.499Z,41.60
2022-10-06T14:19:35.869Z,40.50
2022-10-06T14:22:05.622Z,39.20
2022-10-06T14:24:37.184Z,38.30
2022-10-06T14:27:06.646Z,37.70
2022-10-06T14:29:37.725Z,37.40
2022-10-06T14:32:11.102Z,36.50
2022-10-06T14:34:41.939Z,35.90
2022-10-06T14:37:13.248Z,36.00
2022-10-06T14:39:41.223Z,36.10
2022-10-06T14:42:09.361Z,35.60
2022-10-06T14:44:38.555Z,35.30
2022-10-06T14:47:09.174Z,34.70
2022-10-06T14:49:38.003Z,34.10
2022-10-06T14:52:10.320Z,33.90
2022-10-06T14:54:38.327Z,33.40
2022-10-06T14:57:06.261Z,33.70
2022-10-06T14:59:34.108Z,33.70
2022-10-06T15:02:03.099Z,32.90
2022-10-06T15:04:31.340Z,32.20
2022-10-06T15:07:16.807Z,31.60
2022-10-06T15:09:46.001Z,30.60
2022-10-06T15:12:13.834Z,29.40
2022-10-06T15:14:42.117Z,28.50
2022-10-06T15:17:09.963Z,27.80
2022-10-06T15:19:37.887Z,27.10
2022-10-06T15:22:07.076Z,26.50
2022-10-06T15:24:34.904Z,26.10
2022-10-06T15:27:24.855Z,25.70
2022-10-06T15:29:53.214Z,25.40
2022-10-06T15:32:21.304Z,25.20
2022-10-06T15:34:51.826Z,24.90
2022-10-06T15:37:20.100Z,24.60
2022-10-06T15:39:47.944Z,24.40
2022-10-06T15:42:21.497Z,24.30
2022-10-06T15:44:50.029Z,24.00
2022-10-06T15:47:18.171Z,23.80
2022-10-06T15:49:46.906Z,23.60
2022-10-06T15:52:14.760Z,23.50
2022-10-06T15:54:43.622Z,23.40
2022-10-06T15:57:17.961Z,23.30
2022-10-06T15:59:50.076Z,23.20
2022-10-06T16:02:19.932Z,23.00
2022-10-06T16:05:16.031Z,22.80
2022-10-06T16:07:44.060Z,22.70
2022-10-06T16:10:12.080Z,22.50
2022-10-06T16:12:39.948Z,22.40
2022-10-06T16:15:10.467Z,22.30
2022-10-06T16:17:38.283Z,22.10
2022-10-06T16:20:06.882Z,22.00
2022-10-06T16:22:35.288Z,21.90
2022-10-06T16:25:03.412Z,21.70
2022-10-06T16:27:33.426Z,21.40
2022-10-06T16:30:01.788Z,21.20
2022-10-06T16:32:31.008Z,21.00
2022-10-06T16:34:58.831Z,20.80
2022-10-06T16:37:26.709Z,20.80
2022-10-06T16:39:54.622Z,20.60
2022-10-06T16:42:22.502Z,20.40
2022-10-06T16:44:50.372Z,20.20
2022-10-06T16:47:18.172Z,20.10
2022-10-06T16:49:47.412Z,20.00
2022-10-06T16:52:15.427Z,19.90
2022-10-06T16:54:43.254Z,19.80
2022-10-06T16:57:11.073Z,19.80
2022-10-06T16:59:41.148Z,19.80
2022-10-06T17:02:12.305Z,19.80
2022-10-06T17:04:40.347Z,19.80
2022-10-06T17:07:09.502Z,19.80
2022-10-06T17:09:37.343Z,19.70
2022-10-06T17:12:06.062Z,19.60
2022-10-06T17:14:34.724Z,19.60
2022-10-06T17:17:04.044Z,19.50
2022-10-06T17:19:32.093Z,19.40
2022-10-06T17:22:00.451Z,19.40
2022-10-06T17:24:31.159Z,19.30
2022-10-06T17:27:00.970Z,19.20
2022-10-06T17:29:28.905Z,19.10
2022-10-06T17:32:00.832Z,19.10
2022-10-06T17:34:32.896Z,19.00
2022-10-06T17:37:02.752Z,18.80
2022-10-06T17:39:32.156Z,18.80
2022-10-06T17:42:00.092Z,18.70
2022-10-06T17:44:29.085Z,18.70
2022-10-06T17:46:58.440Z,18.60
2022-10-06T17:49:26.502Z,18.50
2022-10-06T17:51:55.874Z,18.50
2022-10-06T17:54:26.677Z,18.40
2022-10-06T17:56:58.938Z,18.40
2022-10-06T17:59:30.124Z,18.30
2022-10-06T18:02:00.446Z,18.20
2022-10-06T18:04:29.179Z,18.20
2022-10-06T18:06:57.291Z,18.00
2022-10-06T18:09:25.915Z,18.00
2022-10-06T18:11:56.266Z,17.90
2022-10-06T18:14:26.042Z,17.90
2022-10-06T18:16:57.385Z,17.80
2022-10-06T18:19:29.607Z,17.80
2022-10-06T18:21:59.154Z,17.70
2022-10-06T18:24:28.814Z,17.70
2022-10-06T18:27:00.785Z,17.60
2022-10-06T18:29:31.766Z,17.50
2022-10-06T18:32:26.979Z,17.50
2022-10-06T18:37:35.828Z,17.40
2022-10-06T18:40:06.054Z,17.30
2022-10-06T18:42:35.793Z,17.20
2022-10-06T18:45:26.954Z,17.10
2022-10-06T18:48:12.537Z,17.00
2022-10-06T18:50:40.478Z,17.00
2022-10-06T18:53:08.361Z,16.90
2022-10-06T18:55:36.247Z,16.90
2022-10-06T18:58:06.291Z,16.90
2022-10-06T19:00:34.671Z,16.80
2022-10-06T19:03:02.570Z,16.80
2022-10-06T19:05:30.958Z,16.70
2022-10-06T19:07:58.947Z,16.70
2022-10-06T19:10:26.809Z,16.60
2022-10-06T19:12:54.648Z,16.50
2022-10-06T19:15:23.847Z,16.50
2022-10-06T19:17:51.703Z,16.50
2022-10-06T19:20:19.686Z,16.40
2022-10-06T19:22:48.300Z,16.40
2022-10-06T19:25:18.511Z,16.30
2022-10-06T19:27:46.484Z,16.30
2022-10-06T19:30:14.452Z,16.20
2022-10-06T19:32:43.825Z,16.20
2022-10-06T19:35:12.561Z,16.10
2022-10-06T19:37:41.048Z,16.10
2022-10-06T19:40:11.190Z,16.00
2022-10-06T19:42:47.225Z,16.00
2022-10-06T19:45:15.914Z,16.00
2022-10-06T19:47:47.809Z,15.90
2022-10-06T19:50:16.921Z,15.90
2022-10-06T19:52:45.109Z,15.90
2022-10-06T19:55:12.977Z,15.80
2022-10-06T19:57:41.035Z,15.80
2022-10-06T20:00:10.612Z,15.80
2022-10-06T20:02:42.148Z,15.70
2022-10-06T20:05:13.181Z,15.70
2022-10-06T20:07:41.465Z,15.60
2022-10-06T20:10:09.709Z,15.60
2022-10-06T20:12:38.287Z,15.60
2022-10-06T20:15:07.548Z,15.50
2022-10-06T20:17:35.909Z,15.50
2022-10-06T20:20:04.262Z,15.40
2022-10-06T20:22:33.470Z,15.40
2022-10-06T20:25:02.319Z,15.30
2022-10-06T20:27:30.291Z,15.30
2022-10-06T20:29:58.289Z,15.30
2022-10-06T20:32:26.182Z,15.20
2022-10-06T20:34:54.036Z,15.20
2022-10-06T20:37:21.910Z,15.10
2022-10-06T20:40:08.570Z,15.10
2022-10-06T20:42:36.423Z,15.10
2022-10-06T20:45:04.631Z,15.10
2022-10-06T20:47:32.786Z,15.10
2022-10-06T20:50:00.639Z,15.00
2022-10-06T20:52:29.351Z,15.00
2022-10-06T20:54:58.501Z,15.00
2022-10-06T20:57:32.852Z,14.90
2022-10-06T21:00:01.680Z,14.90
2022-10-06T21:02:31.428Z,14.90
2022-10-06T21:04:59.841Z,14.80
2022-10-06T21:07:27.793Z,14.80
2022-10-06T21:09:55.699Z,14.80
2022-10-06T21:12:26.295Z,14.80
2022-10-06T21:14:56.936Z,14.80
2022-10-06T21:17:24.935Z,14.70
2022-10-06T21:19:53.034Z,14.70
2022-10-06T21:22:23.669Z,14.70
2022-10-06T21:24:52.220Z,14.60
2022-10-06T21:27:21.037Z,14.60
2022-10-06T21:29:50.387Z,14.60
2022-10-06T21:32:18.578Z,14.50
2022-10-06T21:34:46.519Z,14.50
2022-10-06T21:37:14.636Z,14.40
2022-10-06T21:39:42.575Z,14.40
2022-10-06T21:42:10.487Z,14.40
2022-10-06T21:44:38.444Z,14.40
2022-10-06T21:47:07.952Z,14.40
2022-10-06T21:49:36.140Z,14.40
2022-10-06T21:52:05.415Z,14.40
2022-10-06T21:54:33.536Z,14.40
2022-10-06T21:57:01.548Z,14.40
2022-10-06T21:59:29.460Z,14.30
2022-10-06T22:01:57.748Z,14.30
2022-10-06T22:04:27.140Z,14.30
2022-10-06T22:06:55.068Z,14.20
2022-10-06T22:09:23.205Z,14.20
2022-10-06T22:11:51.146Z,14.20
2022-10-06T22:14:20.695Z,14.20
2022-10-06T22:16:49.063Z,14.20
2022-10-06T22:19:17.831Z,14.20
2022-10-06T22:21:48.975Z,14.10
2022-10-06T22:24:19.330Z,14.10
2022-10-06T22:26:48.086Z,14.10
2022-10-06T22:29:18.054Z,14.10
2022-10-06T22:31:47.520Z,14.10
2022-10-06T22:34:17.846Z,14.10
2022-10-06T22:36:47.286Z,14.00
2022-10-06T22:39:15.312Z,14.00
2022-10-06T22:41:43.973Z,14.00
2022-10-06T22:44:11.867Z,13.90
2022-10-06T22:46:39.889Z,13.90
2022-10-06T22:49:07.999Z,13.80
2022-10-06T22:51:36.376Z,13.80
2022-10-06T22:54:05.950Z,13.80
2022-10-06T22:56:34.679Z,13.80
2022-10-06T22:59:02.867Z,13.70
2022-10-06T23:01:31.375Z,13.70
2022-10-06T23:03:59.687Z,13.60
2022-10-06T23:06:29.663Z,13.50
2022-10-06T23:08:57.947Z,13.50
2022-10-06T23:11:27.631Z,13.50
2022-10-06T23:13:55.757Z,13.50
2022-10-06T23:16:24.060Z,13.50
2022-10-06T23:18:52.155Z,13.50
2022-10-06T23:21:22.639Z,13.50
2022-10-06T23:23:52.692Z,13.50
2022-10-06T23:26:21.176Z,13.40
2022-10-06T23:28:54.515Z,13.50
2022-10-06T23:31:22.869Z,13.50
2022-10-06T23:33:50.822Z,13.40
2022-10-06T23:36:19.392Z,13.40
2022-10-06T23:38:47.691Z,13.30
2022-10-06T23:41:16.081Z,13.20
2022-10-06T23:43:44.169Z,13.20
2022-10-06T23:46:14.013Z,13.10
2022-10-06T23:48:42.339Z,13.00
2022-10-06T23:51:11.606Z,13.00
2022-10-06T23:53:39.816Z,13.00
2022-10-06T23:56:08.645Z,13.00
2022-10-06T23:58:36.696Z,13.00
